New Hanover Township, Pennsylvania
Current Conditions -  °F | °C
As of 6:54 PM on Wednesday 22 Oct 2014 (Local Time) from KPTW Reporting Station
Light Rain Light Rain  
Wind Chill: 53°   Ceiling: 3500
Heat Index: 53°   Visibility: 10mi
Dew Point: 48°   Wind: 12mph
Humidity: 83%   Direction: 330°NNW
Pressure: 29.89"   Gusts: NA
Location:  40.3096°N, 75.5833°W
Report Text: KPTW 222254Z AUTO 33010KT 10SM -RA OVC035 12/09 A2989 RMK AO2 RAB05 SLP119 P0000 T01170089
Loading
Personal Weather Stations






























Interactive Weather Map
Tropical Storm Tracking
New forecast layout! Learn more

10-Day Weather Forecast

Advertisements
Track Severe Weather on mobile